Cactus Peak, Santa Catalina Island Weather observations

Data are for 10 minute period ending at time listed.
 Day   Time   Solar   Ave.   Ave.  Ave.  Vector    Max.   Stn.    Total
  of    of     Rad.   Air    Rel.  Wind   Wind     Wind   Baro.  Precip.
Year   Day            Temp.  Hum.  Speed  Dir.     Gust   Pres.         
2014   (PST)   W/m2    F      %     mph   deg.      mph    mb.     in.  
------------------------------------------------------------------------
 292   22:20    0.0    63   90.1     7    353.8    10.2    999.0   0.00  
 292   22:30    0.0    63   90.1     8    343.4     9.6    999.0   0.00  
 292   22:40    0.0    62   90.1     7    342.3    10.2    999.0   0.00  
 292   22:50    0.0    62   90.1     7    352.9     9.6    999.0   0.00  
 292   23:00    0.0    62   90.1     6    341.8     8.4    999.0   0.00  
 292   23:10    0.0    62   90.1     6    337.7     8.4    999.0   0.00  
 292   23:20    0.0    62   90.1     6    337.7     7.2    999.0   0.00  
 292   23:30    0.0    62   90.1     6    346.6     7.8    999.0   0.00  
 292   23:40    0.0    62   90.1     7    341.5     9.0    999.0   0.00  
 292   23:50    0.0    62   90.2     7    338.7     8.4    999.0   0.00  
 293    0:00    0.0    62   90.1     7    339.9     9.0    999.0   0.00  
 293    0:10    0.0    62   90.1     8    345.4     9.6    999.0   0.00  
 293    0:20    0.0    62   90.2     7    346.8     9.0    999.0   0.00  
 293    0:30    0.0    62   90.1     6    340.8     8.4    999.0   0.00  
 293    0:40    0.0    62   90.1     6    342.2     7.8    999.0   0.00  
 293    0:50    0.0    62   90.1     6    337.8     7.8    999.0   0.00  
 293    1:00    0.0    62   90.1     6    336.3     7.8    999.0   0.00  
 293    1:10    0.0    62   90.1     5    343.1     6.6    999.0   0.00  
 293    1:20    0.0    62   90.1     5    352.1     6.6    999.0   0.00  
 293    1:30    0.0    62   90.1     4      2.6     5.4    999.0   0.00  
 293    1:40    0.0    62   90.2     4      1.1     4.8    999.0   0.00  
 293    1:50    0.0    61   90.2     4    323.1     5.4    999.0   0.00  
 293    2:00    0.0    61   90.0     4    325.9     6.0    999.0   0.00  
 293    2:10    0.0    61   90.0     5    337.7     6.0    999.0   0.00  
 293    2:20    0.0    62   90.1     6    330.4     7.2    999.0   0.00  
 293    2:30    0.0    62   90.1     7    333.4    10.8    999.0   0.00  
 293    2:40    0.0    62   90.1     9    333.6    12.5    999.0   0.00  
 293    2:50    0.0    62   90.2     8    332.2    11.9    999.0   0.00  
 293    3:00    0.0    62   90.2     9    337.0    12.5    999.0   0.00  
 293    3:10    0.0    62   90.2    10    336.1    13.7    999.0   0.00  
 293    3:20    0.0    62   90.2    10    338.0    14.3    999.0   0.00  
 293    3:30    0.0    62   90.2    11    337.9    14.9    999.0   0.00  
 293    3:40    0.0    62   90.2     9    337.4    13.1    999.0   0.00  
 293    3:50    0.0    62   90.2     7    320.9    11.9    999.0   0.00  
 293    4:00    0.0    62   90.2     7    318.8    10.2    999.0   0.00  
 293    4:10    0.0    62   90.2     6    331.4     9.6    999.0   0.00  
 293    4:20    0.0    62   90.1     7    313.8    11.9    999.0   0.00  
 293    4:30    0.0    62   90.1     7    329.0    10.2    999.0   0.00  
 293    4:40    0.0    62   90.1     7    325.7    11.3    999.0   0.00  
 293    4:50    0.0    62   90.1     6    323.3     9.6    999.0   0.00  
 293    5:00    0.0    62   90.1     8    334.6    11.3    999.0   0.00  
 293    5:10    0.0    62   90.1     8    329.3    11.9    999.0   0.00  
 293    5:20    0.0    62   90.1     8    333.5    11.3    999.0   0.00  
 293    5:30    0.0    62   90.0     6    331.9     9.6    999.0   0.00  
 293    5:40    0.0    62   90.0     5    354.1     9.0    999.0   0.00  
 293    5:50    0.0    62   89.9     4    346.7     6.0    999.0   0.00  
 293    6:00    0.0    62   89.9     4    352.5     4.8    999.0   0.00  
 293    6:10    0.0    62   89.8     4    355.3     4.8    999.0   0.00  
 293    6:20    4.0    62   89.8     3      2.1     4.2    999.0   0.00  
 293    6:30    7.0    62   89.7     1    342.1     3.0    999.0   0.00  
 293    6:40   12.0    62   89.6     3    278.3     5.4    999.0   0.00  
 293    6:50   20.0    62   89.5     3    260.0     6.6    999.0   0.00  
 293    7:00   31.0    62   89.3     5    327.1     7.2    999.0   0.00  
 293    7:10   44.0    62   89.3     4    333.3     5.4    999.0   0.00  
 293    7:20   56.0    62   89.0     4    319.6     6.0    999.0   0.00  
 293    7:30   87.0    62   88.8     7    347.2     9.0    999.0   0.00  
 293    7:40   91.0    63   88.8     6    346.4     9.6    999.0   0.00  
 293    7:50  105.0    63   88.6     6    343.7     7.8    999.0   0.00  
 293    8:00  116.0    63   88.3     6    333.4    10.2    999.0   0.00  
 293    8:10  125.0    64   87.7     4    341.1     7.8    999.0   0.00  
 293    8:20  131.0    64   87.3     4    343.9     6.6    999.0   0.00  
 293    8:30  142.0    64   86.6     5    342.5     8.4    999.0   0.00  
 293    8:40  213.0    65   85.4     3    315.2     7.2    999.0   0.00  
 293    8:50  243.0    65   83.8     3    309.1     6.0    999.0   0.00  
 293    9:00  270.0    66   81.2     3    313.7     5.4    999.0   0.00  
 293    9:10  305.0    66   80.7     3    229.5     4.2    999.0   0.00  
 293    9:20  532.0    69   77.6     4    174.9     9.6    999.0   0.00  
 293    9:30  257.0    68   79.1     8    200.3    12.5    999.0   0.00  
 293    9:40  393.0    67   80.4     8    194.9    12.5    999.0   0.00  
 293    9:50  353.0    66   82.3     8    180.2    11.9    999.0   0.00  
 293   10:00  388.0    67   83.1     7    175.1    11.9    999.0   0.00  
 293   10:10  390.0    67   82.1     7    195.2    10.2    999.0   0.00  
 293   10:20  394.0    67   81.5     7    211.4    10.8    999.0   0.00  
 293   10:30  431.0    67   81.4     8    214.2    11.3    999.0   0.00  
 293   10:40  305.0    67   81.3     8    253.3    13.1    999.0   0.00  
 293   10:50  318.0    67   81.3     7    296.7    11.9    999.0   0.00  
 293   11:00  238.0    68   79.1     7    312.9    10.8    999.0   0.00  
 293   11:10  594.0    68   78.1     6    314.2     9.6    999.0   0.00  
 293   11:20  686.0    69   76.2     6    344.8    10.8    999.0   0.00  
 293   11:30  653.0    70   74.9     6    327.8    10.8    999.0   0.00  
 293   11:40  690.0    70   74.1     8    318.9    11.3    999.0   0.00  
 293   11:50  692.0    70   74.8     7    311.6    12.5    999.0   0.00  
 293   12:00  692.0    70   73.9     7    339.3    12.5    999.0   0.00  
 293   12:10  691.0    72   71.0     6    332.0     9.6    999.0   0.00  
 293   12:20  689.0    71   71.6     6    303.2     9.6    999.0   0.00  
 293   12:30  695.0    72   70.5     6    287.6     9.6    999.0   0.00  
 293   12:40  698.0    71   71.9     7    280.6    10.8    999.0   0.00  
 293   12:50  689.0    70   73.9     7    288.0    11.3    999.0   0.00  
 293   13:00  626.0    71   72.1     7    313.5    11.9    999.0   0.00  
 293   13:10  603.0    70   74.1     9    305.9    13.1    999.0   0.00  
 293   13:20  597.0    70   75.3     8    308.5    12.5    999.0   0.00  
 293   13:30  555.0    69   77.1     7    295.6    10.8    999.0   0.00  
 293   13:40  567.0    69   77.6     8    277.9    11.9    999.0   0.00  
 293   13:50  578.0    69   77.3     8    293.5    12.5    999.0   0.00  
 293   14:00  532.0    69   77.2     7    287.2    12.5    999.0   0.00  
 293   14:10  536.0    69   76.3     7    304.6    12.5    999.0   0.00  
 293   14:20  513.0    70   73.9     7    311.9    11.3    999.0   0.00  
 293   14:30  490.0    70   73.2     7    314.0    11.3    999.0   0.00  
 293   14:40  462.0    69   75.6     9    304.9    13.7    999.0   0.00  
 293   14:50  441.0    68   77.2     9    312.0    12.5    999.0   0.00  
 293   15:00  414.0    69   76.6     9    331.2    12.5    999.0   0.00  
 293   15:10  384.0    68   77.6    10    342.8    15.5    999.0   0.00  
 293   15:20  315.0    67   79.3    12    336.3    16.1    999.0   0.00  
 293   15:30  231.0    66   81.6    13    333.7    17.9    999.0   0.00  
 293   15:40  281.0    66   82.7    14    332.8    17.9    999.0   0.00  
 293   15:50  202.0    66   82.3    12    341.4    16.7    999.0   0.00  
 293   16:00  179.0    65   83.9    14    338.8    17.9    999.0   0.00  
 293   16:10  212.0    65   83.7    13    338.4    16.7    999.0   0.00  
 293   16:20  188.0    65   83.6    13    337.6    16.1    999.0   0.00  
 293   16:30   62.0    64   85.0    14    337.5    19.7    999.0   0.00  
 293   16:40   43.0    64   86.2    15    333.4    18.5    999.0   0.00  
 293   16:50   25.0    63   86.6    15    333.9    19.1    999.0   0.00  
 293   17:00   11.0    63   86.9    15    331.8    19.7    999.0   0.00  
 293   17:10    7.0    63   87.5    14    335.1    18.5    999.0   0.00  
 293   17:20    4.0    63   87.8    13    333.4    16.7    999.0   0.00  
 293   17:30    0.0    63   88.0    13    340.8    18.5    999.0   0.00  
 293   17:40    0.0    63   88.2    14    340.9    19.7    999.0   0.00  
 293   17:50    0.0    63   88.4    14    339.7    17.9    999.0   0.00  
 293   18:00    0.0    63   88.6    14    336.7    18.5    999.0   0.00  
 293   18:10    0.0    63   88.7    15    336.4    20.9    999.0   0.00  
 293   18:20    0.0    63   88.8    15    334.7    21.5    999.0   0.00  
 293   18:30    0.0    63   89.0    15    341.0    20.9    999.0   0.00  
 293   18:40    0.0    63   89.1    14    338.5    19.7    999.0   0.00  
 293   18:50    0.0    63   89.3    14    340.5    17.3    999.0   0.00  
 293   19:00    0.0    63   89.4    14    335.7    17.9    999.0   0.00  
 293   19:10    0.0    63   89.5    13    345.3    16.7    999.0   0.00  
 293   19:20    0.0    63   89.7    14    343.2    17.9    999.0   0.00  
 293   19:30    0.0    63   89.8    15    337.9    18.5    999.0   0.00  
 293   19:40    0.0    64   89.9    15    339.0    20.3    999.0   0.00  
 293   19:50    0.0    64   90.0    14    344.9    17.9    999.0   0.00  
 293   20:00    0.0    64   90.1    12    350.6    15.5    999.0   0.00  
 293   20:10    0.0    64   90.2    13    349.5    15.5    999.0   0.00  
 293   20:20    0.0    64   90.2    11    348.5    13.1    999.0   0.00  
 293   20:30    0.0    64   90.3    12    348.0    15.5    999.0   0.00  
 293   20:40    0.0    64   90.4    11    348.1    14.3    999.0   0.00  
 293   20:50    0.0    64   90.4    10    348.9    13.7    999.0   0.00  
 293   21:00    0.0    64   90.4     9    353.9    14.9    999.0   0.00  
 293   21:10    0.0    64   90.4    10    354.3    13.7    999.0   0.00  
 293   21:20    0.0    64   90.4    12    351.5    15.5    999.0   0.00  
 293   21:30    0.0    63   90.4    10    354.5    13.7    999.0   0.00  
 293   21:40    0.0    63   90.4     7    355.7     9.6    999.0   0.00  
 293   21:50    0.0    63   90.5     7      3.7     9.0    999.0   0.00  
 293   22:00    0.0    63   90.5     6      9.5     7.8    999.0   0.00  
 293   22:10    0.0    63   90.4     4    357.0     4.8    999.0   0.00  

Return to Cactus Peak graphs page.


Western Regional Climate Center,wrcc@dri.edu